Time;durP1;ratioP1;P1;durP2;ratioP2;P2;SDS_P1;SDS_P2;PMS_P1;PMS_P2;Temp;Humidity;BMP_temperature;BMP_pressure;BME280_temperature;BME280_humidity;BME280_pressure;Samples;Min_cycle;Max_cycle;Signal;HPM_P1;HPM_P2
2022/10/22 00:01:49;;;;;;;94.97;55.33;;;;;;;-144.47;100.00;61586.06;4972712;28;20506;-84
2022/10/22 00:04:15;;;;;;;94.85;56.25;;;;;;;-144.47;100.00;61586.06;4971881;28;20069;-84
2022/10/22 00:06:43;;;;;;;96.88;56.08;;;;;;;-144.47;100.00;61586.06;4971730;28;20049;-83
2022/10/22 00:09:10;;;;;;;100.30;56.88;;;;;;;-144.47;100.00;61586.06;4962152;28;20031;-84
2022/10/22 00:11:35;;;;;;;98.03;58.15;;;;;;;-144.47;100.00;61586.06;4973620;28;20043;-84
2022/10/22 00:14:01;;;;;;;94.70;57.15;;;;;;;-144.47;100.00;61586.06;4975641;28;20098;-84
2022/10/22 00:16:26;;;;;;;97.15;56.85;;;;;;;-144.47;100.00;61586.06;4961700;28;20058;-84
2022/10/22 00:18:52;;;;;;;105.55;61.67;;;;;;;-144.47;100.00;61586.06;4966092;28;20443;-84
2022/10/22 00:21:17;;;;;;;105.22;60.20;;;;;;;-144.47;100.00;61586.06;4960419;28;20030;-82
2022/10/22 00:23:42;;;;;;;106.43;61.28;;;;;;;-144.47;100.00;61586.06;4975334;28;20103;-84
2022/10/22 00:26:09;;;;;;;102.38;61.28;;;;;;;-144.47;100.00;61586.06;4974793;28;20042;-85
2022/10/22 00:28:35;;;;;;;107.93;64.35;;;;;;;-144.47;100.00;61586.06;4975074;28;20081;-83
2022/10/22 00:31:01;;;;;;;108.18;62.47;;;;;;;-144.47;100.00;61586.06;4974903;28;20479;-84
2022/10/22 00:33:27;;;;;;;105.22;60.95;;;;;;;-144.47;100.00;61586.06;4975047;28;20039;-84
2022/10/22 00:35:53;;;;;;;108.43;62.78;;;;;;;-144.47;100.00;61586.06;4975134;28;20061;-85
2022/10/22 00:38:19;;;;;;;108.80;61.95;;;;;;;-144.47;100.00;61586.06;4966709;28;20054;-84
2022/10/22 00:40:44;;;;;;;108.47;62.97;;;;;;;-144.47;100.00;61586.06;4966372;28;20102;-84
2022/10/22 00:43:12;;;;;;;112.40;64.72;;;;;;;-144.47;100.00;61586.06;4975272;28;20034;-83
2022/10/22 00:45:37;;;;;;;107.28;62.83;;;;;;;-144.47;100.00;61586.06;4975185;28;20094;-85
2022/10/22 00:48:10;;;;;;;109.22;61.92;;;;;;;-144.47;100.00;61586.06;4965181;28;20039;-84
2022/10/22 00:50:42;;;;;;;106.22;60.50;;;;;;;-144.47;100.00;61586.06;4974894;28;20043;-83
2022/10/22 00:53:13;;;;;;;110.53;63.20;;;;;;;-144.47;100.00;61586.06;4974489;28;20038;-84
2022/10/22 00:55:40;;;;;;;107.88;61.03;;;;;;;-144.47;100.00;61586.06;4974623;28;20038;-83
2022/10/22 00:58:06;;;;;;;111.95;63.25;;;;;;;-144.47;100.00;61586.06;4974161;28;20236;-83
2022/10/22 01:00:31;;;;;;;111.13;62.17;;;;;;;-144.47;100.00;61586.06;4974521;28;20389;-84
2022/10/22 01:02:58;;;;;;;105.03;61.15;;;;;;;-144.47;100.00;61586.06;4974631;28;20030;-84
2022/10/22 01:05:31;;;;;;;105.32;59.55;;;;;;;-144.47;100.00;61586.06;4974434;28;20054;-84
2022/10/22 01:07:57;;;;;;;108.45;62.45;;;;;;;-144.47;100.00;61586.06;4974585;28;20045;-85
2022/10/22 01:10:40;;;;;;;111.57;62.78;;;;;;;-144.47;100.00;61586.06;4973699;28;20488;-83
2022/10/22 01:13:11;;;;;;;101.97;60.90;;;;;;;-144.47;100.00;61586.06;4964865;28;20035;-85
2022/10/22 01:15:49;;;;;;;104.70;61.20;;;;;;;-144.47;100.00;61586.06;4974182;28;20081;-84
2022/10/22 01:18:28;;;;;;;111.70;62.25;;;;;;;-144.47;100.00;61586.06;4974040;28;20031;-84
2022/10/22 01:21:08;;;;;;;110.72;59.95;;;;;;;-144.47;100.00;61586.06;4971410;28;20058;-86
2022/10/22 01:24:00;;;;;;;108.35;59.38;;;;;;;-144.47;100.00;61586.06;4974472;28;20376;-87
2022/10/22 01:26:50;;;;;;;101.45;58.80;;;;;;;-144.47;100.00;61586.06;4958976;28;20431;-87
2022/10/22 01:29:39;;;;;;;98.47;56.80;;;;;;;-144.47;100.00;61586.06;4973919;28;20065;-86
2022/10/22 01:32:12;;;;;;;99.47;55.42;;;;;;;-144.47;100.00;61586.06;4972551;28;20542;-87
2022/10/22 01:34:43;;;;;;;101.32;56.90;;;;;;;-144.47;100.00;61586.06;4974839;28;20484;-87
2022/10/22 01:37:10;;;;;;;89.85;52.85;;;;;;;-144.47;100.00;61586.06;4965066;28;20593;-87
2022/10/22 01:39:39;;;;;;;89.72;54.85;;;;;;;-144.47;100.00;61586.06;4974846;28;20114;-87
2022/10/22 01:42:05;;;;;;;95.65;55.28;;;;;;;-144.47;100.00;61586.06;4974411;28;20031;-86
2022/10/22 01:44:36;;;;;;;89.05;53.35;;;;;;;-144.47;100.00;61586.06;4965749;28;20474;-86
2022/10/22 01:47:16;;;;;;;93.18;53.35;;;;;;;-144.47;100.00;61586.06;4975235;28;20491;-86
2022/10/22 01:49:56;;;;;;;93.97;54.40;;;;;;;-144.47;100.00;61586.06;4974713;28;20232;-85
2022/10/22 01:52:59;;;;;;;86.25;52.63;;;;;;;-144.47;100.00;61586.06;4971693;28;20026;-85
2022/10/22 01:55:50;;;;;;;88.05;52.80;;;;;;;-144.47;100.00;61586.06;4975461;28;20138;-84
2022/10/22 01:58:32;;;;;;;95.65;54.03;;;;;;;-144.47;100.00;61586.06;4974874;28;20050;-88
2022/10/22 02:01:42;;;;;;;96.65;55.15;;;;;;;-144.47;100.00;61586.06;4963047;28;20121;-87
2022/10/22 02:04:20;;;;;;;89.88;52.53;;;;;;;-144.47;100.00;61586.06;4972341;28;20054;-86
2022/10/22 02:06:49;;;;;;;89.90;53.35;;;;;;;-144.47;100.00;61586.06;4973750;28;20031;-88
2022/10/22 02:09:18;;;;;;;96.57;57.10;;;;;;;-144.47;100.00;61586.06;4973694;28;20118;-86
2022/10/22 02:11:46;;;;;;;94.72;53.78;;;;;;;-144.47;100.00;61586.06;4968507;28;20491;-87
2022/10/22 02:14:14;;;;;;;97.82;55.88;;;;;;;-144.47;100.00;61586.06;4973349;28;20045;-87
2022/10/22 02:16:43;;;;;;;96.10;56.03;;;;;;;-144.47;100.00;61586.06;4973919;28;20429;-85
2022/10/22 02:19:42;;;;;;;96.50;55.67;;;;;;;-144.47;100.00;61586.06;4973669;28;20057;-86
2022/10/22 02:22:08;;;;;;;93.90;56.03;;;;;;;-144.47;100.00;61586.06;4977420;28;20376;-87
2022/10/22 02:24:35;;;;;;;100.35;55.30;;;;;;;-144.47;100.00;61586.06;4973819;28;20034;-87
2022/10/22 02:27:11;;;;;;;95.38;55.60;;;;;;;-144.47;100.00;61586.06;4963931;28;20030;-86
2022/10/22 02:29:44;;;;;;;96.57;56.75;;;;;;;-144.47;100.00;61586.06;4973310;28;20034;-84
2022/10/22 02:32:15;;;;;;;89.07;53.40;;;;;;;-144.47;100.00;61586.06;4972580;28;20038;-83
2022/10/22 02:34:40;;;;;;;95.07;54.95;;;;;;;-144.47;100.00;61586.06;4972934;28;20483;-83
2022/10/22 02:37:07;;;;;;;97.15;57.08;;;;;;;-144.47;100.00;61586.06;4971922;28;20066;-84
2022/10/22 02:39:35;;;;;;;95.03;54.92;;;;;;;-144.47;100.00;61586.06;4973009;28;20050;-86
2022/10/22 02:42:02;;;;;;;103.20;55.38;;;;;;;-144.47;100.00;61586.06;4972587;28;20030;-87
2022/10/22 02:44:27;;;;;;;94.85;55.05;;;;;;;-144.47;100.00;61586.06;4972876;28;20072;-86
2022/10/22 02:46:53;;;;;;;99.32;56.20;;;;;;;-144.47;100.00;61586.06;4963474;28;20038;-86
2022/10/22 02:49:18;;;;;;;93.13;55.28;;;;;;;-144.47;100.00;61586.06;4963051;28;20026;-86
2022/10/22 02:51:44;;;;;;;96.13;56.53;;;;;;;-144.47;100.00;61586.06;4972463;28;20038;-86
2022/10/22 02:54:09;;;;;;;99.25;55.35;;;;;;;-144.47;100.00;61586.06;4972242;28;20562;-84
2022/10/22 02:56:34;;;;;;;98.60;56.28;;;;;;;-144.47;100.00;61586.06;4972321;28;20059;-85
2022/10/22 02:59:00;;;;;;;102.78;58.33;;;;;;;-144.47;100.00;61586.06;4962854;28;20034;-84
2022/10/22 03:01:25;;;;;;;96.45;55.47;;;;;;;-144.47;100.00;61586.06;4972932;28;20086;-83
2022/10/22 03:03:51;;;;;;;100.93;57.08;;;;;;;-144.47;100.00;61586.06;4972269;28;20035;-86
2022/10/22 03:06:16;;;;;;;97.80;55.60;;;;;;;-144.47;100.00;61586.06;4971955;28;20057;-86
2022/10/22 03:08:42;;;;;;;94.10;53.70;;;;;;;-144.47;100.00;61586.06;4972421;28;20042;-84
2022/10/22 03:11:08;;;;;;;96.00;54.60;;;;;;;-144.47;100.00;61586.06;4974986;28;20052;-86
2022/10/22 03:13:33;;;;;;;94.25;54.17;;;;;;;-144.47;100.00;61586.06;4963048;28;20035;-85
2022/10/22 03:15:58;;;;;;;94.60;54.85;;;;;;;-144.47;100.00;61586.06;4972089;28;20058;-84
2022/10/22 03:18:24;;;;;;;95.95;54.97;;;;;;;-144.47;100.00;61586.06;4972075;28;20162;-85
2022/10/22 03:20:49;;;;;;;97.38;55.33;;;;;;;-144.47;100.00;61586.06;4972533;28;20042;-86
2022/10/22 03:23:18;;;;;;;99.65;56.17;;;;;;;-144.47;100.00;61586.06;4971777;28;20034;-86
2022/10/22 03:25:47;;;;;;;102.43;55.72;;;;;;;-144.47;100.00;61586.06;4972205;28;20097;-85
2022/10/22 03:28:15;;;;;;;102.57;56.40;;;;;;;-144.47;100.00;61586.06;4971877;28;20031;-85
2022/10/22 03:30:41;;;;;;;97.00;56.90;;;;;;;-144.47;100.00;61586.06;4972226;28;20070;-84
2022/10/22 03:33:06;;;;;;;97.50;55.38;;;;;;;-144.47;100.00;61586.06;4971637;28;20065;-82
2022/10/22 03:35:39;;;;;;;98.22;55.72;;;;;;;-144.47;100.00;61586.06;4971678;28;20887;-81
2022/10/22 03:38:05;;;;;;;96.82;52.35;;;;;;;-144.47;100.00;61586.06;4971912;28;20031;-84
2022/10/22 03:40:30;;;;;;;91.85;51.50;;;;;;;-144.47;100.00;61586.06;4972514;28;20105;-87
2022/10/22 03:42:57;;;;;;;85.53;49.50;;;;;;;-144.47;100.00;61586.06;4972147;28;20129;-87
2022/10/22 03:45:23;;;;;;;80.18;50.08;;;;;;;-144.47;100.00;61586.06;4971864;28;20077;-87
2022/10/22 03:47:48;;;;;;;80.25;47.63;;;;;;;-144.47;100.00;61586.06;4959150;28;20043;-87
2022/10/22 03:50:14;;;;;;;77.90;47.85;;;;;;;-144.47;100.00;61586.06;4958535;28;20475;-84
2022/10/22 03:52:39;;;;;;;79.68;49.50;;;;;;;-144.47;100.00;61586.06;4976649;28;20062;-83
2022/10/22 03:55:07;;;;;;;84.30;49.60;;;;;;;-144.47;100.00;61586.06;4971783;28;20019;-83
2022/10/22 03:57:33;;;;;;;81.63;48.55;;;;;;;-144.47;100.00;61586.06;4971854;28;20480;-84
2022/10/22 03:59:59;;;;;;;79.88;48.03;;;;;;;-144.47;100.00;61586.06;4971808;28;20027;-84
2022/10/22 04:02:27;;;;;;;82.00;47.08;;;;;;;-144.47;100.00;61586.06;4972053;28;20074;-87
2022/10/22 04:04:53;;;;;;;87.68;48.55;;;;;;;-144.47;100.00;61586.06;4972734;28;20490;-84
2022/10/22 04:07:19;;;;;;;82.43;47.55;;;;;;;-144.47;100.00;61586.06;4972136;28;20147;-86
2022/10/22 04:09:44;;;;;;;84.57;49.38;;;;;;;-144.47;100.00;61586.06;4972552;28;20077;-86
2022/10/22 04:12:09;;;;;;;81.13;47.60;;;;;;;-144.47;100.00;61586.06;4962521;28;20480;-84
2022/10/22 04:14:35;;;;;;;85.88;48.97;;;;;;;-144.47;100.00;61586.06;4963707;28;20155;-87
2022/10/22 04:17:00;;;;;;;80.55;46.95;;;;;;;-144.47;100.00;61586.06;4973375;28;20037;-84
2022/10/22 04:19:26;;;;;;;89.43;50.60;;;;;;;-144.47;100.00;61586.06;4973284;28;20101;-84
2022/10/22 04:21:51;;;;;;;89.28;51.25;;;;;;;-144.47;100.00;61586.06;4971739;28;20027;-83
2022/10/22 04:24:17;;;;;;;94.10;53.33;;;;;;;-144.47;100.00;61586.06;4971187;28;20869;-85
2022/10/22 04:26:42;;;;;;;92.63;51.03;;;;;;;-144.47;100.00;61586.06;4972638;28;20623;-86
2022/10/22 04:29:11;;;;;;;92.20;52.15;;;;;;;-144.47;100.00;61586.06;4974915;28;20110;-87
2022/10/22 04:31:36;;;;;;;97.35;52.40;;;;;;;-144.47;100.00;61586.06;4979909;28;20077;-88
2022/10/22 04:34:01;;;;;;;100.63;52.55;;;;;;;-144.47;100.00;61586.06;4979625;28;20027;-88
2022/10/22 04:36:28;;;;;;;92.93;53.05;;;;;;;-144.47;100.00;61586.06;4975171;28;20542;-86
2022/10/22 04:38:58;;;;;;;102.47;55.50;;;;;;;-144.47;100.00;61586.06;4973623;28;20546;-86
2022/10/22 04:41:35;;;;;;;89.82;51.05;;;;;;;-144.47;100.00;61586.06;4971975;28;20041;-86
2022/10/22 04:44:01;;;;;;;105.75;53.67;;;;;;;-144.47;100.00;61586.06;4972034;28;20026;-85
2022/10/22 04:46:28;;;;;;;95.43;53.22;;;;;;;-144.47;100.00;61586.06;4971877;28;20035;-85
2022/10/22 04:48:54;;;;;;;108.43;55.42;;;;;;;-144.47;100.00;61586.06;4971464;28;20042;-85
2022/10/22 04:51:22;;;;;;;114.20;56.63;;;;;;;-144.47;100.00;61586.06;4959263;28;20038;-85
2022/10/22 04:53:48;;;;;;;103.55;56.17;;;;;;;-144.47;100.00;61586.06;4971166;28;20165;-85
2022/10/22 04:56:18;;;;;;;114.38;58.85;;;;;;;-144.47;100.00;61586.06;4970635;28;20050;-84
2022/10/22 04:58:44;;;;;;;;;;;;;;;-144.47;100.00;61586.06;4971598;28;20031;-84
2022/10/22 05:01:27;;;;;;;112.05;55.70;;;;;;;-144.47;100.00;61586.06;4964829;28;19929;-84
2022/10/22 05:03:55;;;;;;;124.95;59.47;;;;;;;-144.47;100.00;61586.06;4962081;28;20499;-85
2022/10/22 05:06:21;;;;;;;116.18;58.42;;;;;;;-144.47;100.00;61586.06;4974178;28;20041;-84
2022/10/22 05:08:52;;;;;;;118.53;58.28;;;;;;;-144.47;100.00;61586.06;4965059;28;20035;-85
2022/10/22 05:11:22;;;;;;;122.38;58.75;;;;;;;-144.47;100.00;61586.06;4973732;28;20043;-86
2022/10/22 05:13:48;;;;;;;120.95;56.75;;;;;;;-144.47;100.00;61586.06;4970863;28;20030;-86
2022/10/22 05:16:13;;;;;;;114.03;59.95;;;;;;;-144.47;100.00;61586.06;4974351;28;20487;-86
2022/10/22 05:18:41;;;;;;;106.93;57.30;;;;;;;-144.47;100.00;61586.06;4974409;28;20045;-86
2022/10/22 05:21:09;;;;;;;116.68;56.63;;;;;;;-144.47;100.00;61586.06;4973902;28;20041;-86
2022/10/22 05:23:35;;;;;;;112.20;57.45;;;;;;;-144.47;100.00;61586.06;4965752;28;20030;-87
2022/10/22 05:26:02;;;;;;;113.45;58.10;;;;;;;-144.47;100.00;61586.06;4977676;28;20447;-86
2022/10/22 05:28:28;;;;;;;109.03;57.35;;;;;;;-144.47;100.00;61586.06;4974313;28;20030;-84
2022/10/22 05:30:58;;;;;;;116.00;56.53;;;;;;;-144.47;100.00;61586.06;4974570;28;20031;-88
2022/10/22 05:33:24;;;;;;;115.22;58.55;;;;;;;-144.47;100.00;61586.06;4974276;28;20460;-88
2022/10/22 05:35:50;;;;;;;115.82;57.15;;;;;;;-144.47;100.00;61586.06;4974524;28;20380;-87
2022/10/22 05:38:16;;;;;;;112.43;58.60;;;;;;;-144.47;100.00;61586.06;4974055;28;20031;-87
2022/10/22 05:40:43;;;;;;;112.10;59.63;;;;;;;-144.47;100.00;61586.06;4965503;28;20082;-87
2022/10/22 05:43:08;;;;;;;114.35;59.67;;;;;;;-144.47;100.00;61586.06;4948216;28;20447;-85
2022/10/22 05:45:38;;;;;;;111.70;58.50;;;;;;;-144.47;100.00;61586.06;4971193;28;20031;-83
2022/10/22 05:48:04;;;;;;;118.10;59.47;;;;;;;-144.47;100.00;61586.06;4965439;28;20026;-83
2022/10/22 05:50:30;;;;;;;114.18;58.60;;;;;;;-144.47;100.00;61586.06;4973381;28;20635;-86
2022/10/22 05:52:56;;;;;;;122.80;59.78;;;;;;;-144.47;100.00;61586.06;4972791;28;20030;-83
2022/10/22 05:55:21;;;;;;;123.20;61.45;;;;;;;-144.47;100.00;61586.06;4972851;28;20049;-83
2022/10/22 05:57:48;;;;;;;122.57;60.03;;;;;;;-144.47;100.00;61586.06;4974610;28;20546;-83
2022/10/22 06:00:15;;;;;;;115.10;59.05;;;;;;;-144.47;100.00;61586.06;4959037;28;20035;-83
2022/10/22 06:02:40;;;;;;;121.00;61.00;;;;;;;-144.47;100.00;61586.06;4973839;28;20122;-83
2022/10/22 06:05:06;;;;;;;124.22;61.42;;;;;;;-144.47;100.00;61586.06;4973456;28;20121;-84
2022/10/22 06:07:32;;;;;;;123.10;61.00;;;;;;;-144.47;100.00;61586.06;4977163;28;20041;-83
2022/10/22 06:09:58;;;;;;;112.68;60.25;;;;;;;-144.47;100.00;61586.06;4962700;28;20027;-83
2022/10/22 06:12:24;;;;;;;113.85;59.55;;;;;;;-144.47;100.00;61586.06;4971956;28;20031;-82
2022/10/22 06:14:49;;;;;;;114.55;58.15;;;;;;;-144.47;100.00;61586.06;4973061;28;20379;-84
2022/10/22 06:17:15;;;;;;;116.90;59.72;;;;;;;-144.47;100.00;61586.06;4958562;28;20476;-86
2022/10/22 06:19:41;;;;;;;113.03;60.05;;;;;;;-144.47;100.00;61586.06;4957493;28;20042;-84
2022/10/22 06:22:06;;;;;;;113.13;58.33;;;;;;;-144.47;100.00;61586.06;4947104;28;20566;-81
2022/10/22 06:24:32;;;;;;;106.05;57.08;;;;;;;-144.47;100.00;61586.06;4957476;28;20412;-84
2022/10/22 06:26:57;;;;;;;102.85;56.38;;;;;;;-144.47;100.00;61586.06;4959651;28;20507;-86
2022/10/22 06:29:22;;;;;;;101.60;57.65;;;;;;;-144.47;100.00;61586.06;4964747;28;20495;-80
2022/10/22 06:31:48;;;;;;;104.47;57.40;;;;;;;-144.47;100.00;61586.06;4956922;28;20047;-87
2022/10/22 06:34:14;;;;;;;108.50;56.75;;;;;;;-144.47;100.00;61586.06;4959502;28;20031;-89
2022/10/22 06:36:41;;;;;;;103.88;57.17;;;;;;;-144.47;100.00;61586.06;4973623;28;20090;-91
2022/10/22 06:39:10;;;;;;;102.90;55.72;;;;;;;-144.47;100.00;61586.06;4970557;28;20034;-88
2022/10/22 06:41:35;;;;;;;102.65;55.88;;;;;;;-144.47;100.00;61586.06;4973093;28;20035;-87
2022/10/22 06:44:01;;;;;;;102.00;58.45;;;;;;;-144.47;100.00;61586.06;4973331;28;20031;-87
2022/10/22 06:46:26;;;;;;;93.43;53.30;;;;;;;-144.47;100.00;61586.06;4973263;28;20089;-90
2022/10/22 06:48:57;;;;;;;91.40;55.20;;;;;;;-144.47;100.00;61586.06;4973895;28;20026;-89
2022/10/22 06:51:23;;;;;;;89.53;54.95;;;;;;;-144.47;100.00;61586.06;4972963;28;20039;-88
2022/10/22 06:53:48;;;;;;;92.30;55.47;;;;;;;-144.47;100.00;61586.06;4969576;28;20034;-89
2022/10/22 06:56:18;;;;;;;92.55;54.30;;;;;;;-144.47;100.00;61586.06;4972686;28;20113;-87
2022/10/22 06:58:46;;;;;;;89.03;52.13;;;;;;;-144.47;100.00;61586.06;4973127;28;20049;-86
2022/10/22 07:01:14;;;;;;;90.10;54.25;;;;;;;-144.47;100.00;61586.06;4968896;28;20042;-86
2022/10/22 07:03:41;;;;;;;85.15;53.80;;;;;;;-144.47;100.00;61586.06;4972524;28;20038;-86
2022/10/22 07:06:09;;;;;;;85.25;52.63;;;;;;;-144.47;100.00;61586.06;4972232;28;20030;-84
2022/10/22 07:08:35;;;;;;;87.38;53.00;;;;;;;-144.47;100.00;61586.06;4972516;28;20035;-82
2022/10/22 07:11:07;;;;;;;90.68;54.28;;;;;;;-144.47;100.00;61586.06;4956535;28;20058;-82
2022/10/22 07:13:33;;;;;;;88.32;54.25;;;;;;;-144.47;100.00;61586.06;4972280;28;20034;-83
2022/10/22 07:15:58;;;;;;;90.50;52.67;;;;;;;-144.47;100.00;61586.06;4971871;28;20027;-82
2022/10/22 07:18:24;;;;;;;89.95;54.40;;;;;;;-144.47;100.00;61586.06;4974102;28;20322;-84
2022/10/22 07:20:49;;;;;;;88.97;51.90;;;;;;;-144.47;100.00;61586.06;4971202;28;20467;-83
2022/10/22 07:23:16;;;;;;;87.28;51.55;;;;;;;-144.47;100.00;61586.06;4971895;28;20117;-84
2022/10/22 07:25:41;;;;;;;89.28;53.60;;;;;;;-144.47;100.00;61586.06;4959439;28;20035;-84
2022/10/22 07:28:07;;;;;;;90.57;52.65;;;;;;;-144.47;100.00;61586.06;4971993;28;20053;-81
2022/10/22 07:30:34;;;;;;;86.07;51.30;;;;;;;-144.47;100.00;61586.06;4969619;28;20396;-86
2022/10/22 07:33:01;;;;;;;80.35;51.55;;;;;;;-144.47;100.00;61586.06;4968614;28;20463;-86
2022/10/22 07:35:28;;;;;;;88.82;55.13;;;;;;;-144.47;100.00;61586.06;4973193;28;20035;-85
2022/10/22 07:37:53;;;;;;;87.60;52.63;;;;;;;-144.47;100.00;61586.06;4971592;28;20031;-92
2022/10/22 07:40:19;;;;;;;89.97;52.90;;;;;;;-144.47;100.00;61586.06;4965382;28;20042;-86
2022/10/22 07:42:45;;;;;;;94.90;54.05;;;;;;;-144.47;100.00;61586.06;4970109;28;20031;-83
2022/10/22 07:45:10;;;;;;;85.00;51.70;;;;;;;-144.47;100.00;61586.06;4970563;28;20072;-83
2022/10/22 07:47:36;;;;;;;89.13;52.67;;;;;;;-144.47;100.00;61586.06;4969927;28;20586;-84
2022/10/22 07:50:01;;;;;;;84.45;51.00;;;;;;;-144.47;100.00;61586.06;4971112;28;20089;-83
2022/10/22 07:52:27;;;;;;;91.18;52.13;;;;;;;-144.47;100.00;61586.06;4952987;28;20035;-85
2022/10/22 07:54:52;;;;;;;84.97;51.65;;;;;;;-144.47;100.00;61586.06;4953901;28;20034;-82
2022/10/22 07:57:18;;;;;;;78.15;48.25;;;;;;;-144.47;100.00;61586.06;4971219;28;20035;-85
2022/10/22 07:59:43;;;;;;;84.15;50.75;;;;;;;-144.47;100.00;61586.06;4972962;28;20031;-86
2022/10/22 08:02:11;;;;;;;75.15;46.60;;;;;;;-144.47;100.00;61586.06;4967847;28;20038;-84
2022/10/22 08:04:36;;;;;;;79.82;49.70;;;;;;;-144.47;100.00;61586.06;4949929;28;20054;-87
2022/10/22 08:07:02;;;;;;;84.35;49.28;;;;;;;-144.47;100.00;61586.06;4967476;28;20047;-87
2022/10/22 08:09:27;;;;;;;86.47;50.88;;;;;;;-144.47;100.00;61586.06;4968666;28;20031;-86
2022/10/22 08:11:53;;;;;;;83.80;49.75;;;;;;;-144.47;100.00;61586.06;4964766;28;20039;-83
2022/10/22 08:14:19;;;;;;;80.05;49.22;;;;;;;-144.47;100.00;61586.06;4967739;28;20038;-82
2022/10/22 08:16:45;;;;;;;82.78;50.10;;;;;;;-144.47;100.00;61586.06;4968559;28;20030;-83
2022/10/22 08:19:12;;;;;;;82.25;49.30;;;;;;;-144.47;100.00;61586.06;4964314;28;20047;-79
2022/10/22 08:21:38;;;;;;;78.75;47.70;;;;;;;-144.47;100.00;61586.06;4979344;28;20035;-87
2022/10/22 08:24:05;;;;;;;78.47;47.20;;;;;;;-144.47;100.00;61586.06;4984335;28;20058;-86
2022/10/22 08:26:30;;;;;;;78.43;47.17;;;;;;;-144.47;100.00;61586.06;4975264;28;20062;-83
2022/10/22 08:28:56;;;;;;;78.38;47.17;;;;;;;-144.47;100.00;61586.06;4976946;28;20038;-85
2022/10/22 08:31:22;;;;;;;75.63;47.78;;;;;;;-144.47;100.00;61586.06;4955255;28;20487;-85
2022/10/22 08:33:48;;;;;;;76.68;46.17;;;;;;;-144.47;100.00;61586.06;4971536;28;20053;-84
2022/10/22 08:36:13;;;;;;;71.95;44.47;;;;;;;-144.47;100.00;61586.06;4977604;28;20155;-83
2022/10/22 08:38:39;;;;;;;78.53;45.45;;;;;;;-144.47;100.00;61586.06;4985767;28;20046;-83
2022/10/22 08:41:19;;;;;;;66.00;42.85;;;;;;;-144.47;100.00;61586.06;4992295;28;20030;-91
2022/10/22 08:44:08;;;;;;;67.20;43.85;;;;;;;-144.47;100.00;61586.06;4978531;28;20074;-86
2022/10/22 08:46:36;;;;;;;72.80;45.00;;;;;;;-144.47;100.00;61586.06;4963635;28;20390;-86
2022/10/22 08:49:07;;;;;;;72.72;45.78;;;;;;;-144.47;100.00;61586.06;4978653;28;20046;-85
2022/10/22 08:51:39;;;;;;;69.38;43.00;;;;;;;-144.47;100.00;61586.06;4977015;28;20130;-86
2022/10/22 08:54:14;;;;;;;69.13;42.97;;;;;;;-144.47;100.00;61586.06;4975208;28;20043;-86
2022/10/22 08:56:43;;;;;;;70.10;43.45;;;;;;;-144.47;100.00;61586.06;4975549;28;20046;-85
2022/10/22 08:59:18;;;;;;;69.03;43.87;;;;;;;-144.47;100.00;61586.06;4977244;28;20045;-91
2022/10/22 09:01:50;;;;;;;67.00;42.80;;;;;;;-144.47;100.00;61586.06;4981633;28;20297;-85
2022/10/22 09:04:44;;;;;;;62.30;40.97;;;;;;;-144.47;100.00;61586.06;4958091;28;20039;-81
2022/10/22 09:07:10;;;;;;;63.75;41.35;;;;;;;-144.47;100.00;61586.06;4975182;28;20039;-82
2022/10/22 09:09:45;;;;;;;63.17;42.58;;;;;;;-144.47;100.00;61586.06;4974579;28;20039;-83
2022/10/22 09:12:15;;;;;;;59.10;38.95;;;;;;;-144.47;100.00;61586.06;4974379;28;20114;-82
2022/10/22 09:14:41;;;;;;;61.17;39.67;;;;;;;-144.47;100.00;61586.06;4977284;28;20113;-82
2022/10/22 09:17:24;;;;;;;58.85;39.90;;;;;;;-144.47;100.00;61586.06;4975218;28;20398;-82
2022/10/22 09:20:07;;;;;;;58.33;40.00;;;;;;;-144.47;100.00;61586.06;4971617;28;20392;-82
2022/10/22 09:22:56;;;;;;;57.50;38.65;;;;;;;-144.47;100.00;61586.06;4972428;28;20142;-84
2022/10/22 09:25:26;;;;;;;56.65;38.10;;;;;;;-144.47;100.00;61586.06;4975060;28;20472;-85
2022/10/22 09:27:57;;;;;;;59.80;37.95;;;;;;;-144.47;100.00;61586.06;4959138;28;20070;-85
2022/10/22 09:30:25;;;;;;;52.80;37.85;;;;;;;-144.47;100.00;61586.06;4973670;28;20034;-86
2022/10/22 09:33:05;;;;;;;54.17;37.83;;;;;;;-144.47;100.00;61586.06;4976108;28;20439;-89
2022/10/22 09:35:44;;;;;;;51.97;36.80;;;;;;;-144.47;100.00;61586.06;4972742;28;20035;-86
2022/10/22 09:38:13;;;;;;;54.08;37.28;;;;;;;-144.47;100.00;61586.06;4977059;28;20510;-86
2022/10/22 09:40:48;;;;;;;48.97;36.35;;;;;;;-144.47;100.00;61586.06;4974835;28;20054;-85
2022/10/22 09:43:15;;;;;;;53.20;36.13;;;;;;;-144.47;100.00;61586.06;4974281;28;20049;-85
2022/10/22 09:45:41;;;;;;;57.97;37.53;;;;;;;-144.47;100.00;61586.06;4974466;28;20039;-85
2022/10/22 09:48:27;;;;;;;50.58;34.75;;;;;;;-144.47;100.00;61586.06;4975365;28;20235;-83
2022/10/22 09:51:46;;;;;;;50.17;34.53;;;;;;;-144.47;100.00;61586.06;4971512;28;20471;-84
2022/10/22 09:54:16;;;;;;;47.97;33.33;;;;;;;-144.47;100.00;61586.06;4877582;29;20047;-83
2022/10/22 09:56:49;;;;;;;44.80;32.40;;;;;;;-144.47;100.00;61586.06;4965615;28;20097;-84
2022/10/22 09:59:16;;;;;;;43.80;31.67;;;;;;;-144.47;100.00;61586.06;4973842;28;20030;-84
2022/10/22 10:01:43;;;;;;;41.63;29.73;;;;;;;-144.47;100.00;61586.06;4974874;28;20090;-83
2022/10/22 10:04:15;;;;;;;41.33;28.70;;;;;;;-144.47;100.00;61586.06;4963248;28;20038;-84
2022/10/22 10:06:43;;;;;;;40.88;29.10;;;;;;;-144.47;100.00;61586.06;4979112;28;20031;-81
2022/10/22 10:09:15;;;;;;;43.00;29.45;;;;;;;-144.47;100.00;61586.06;4974363;28;20077;-84
2022/10/22 10:11:52;;;;;;;42.20;30.52;;;;;;;-144.47;100.00;61586.06;4976241;28;20054;-85
2022/10/22 10:14:40;;;;;;;40.08;28.85;;;;;;;-144.47;100.00;61586.06;4975403;28;20031;-85
2022/10/22 10:17:23;;;;;;;41.25;30.40;;;;;;;-144.47;100.00;61586.06;4972812;28;20468;-87
2022/10/22 10:20:00;;;;;;;40.95;29.90;;;;;;;-144.47;100.00;61586.06;4974778;28;20560;-83
2022/10/22 10:22:53;;;;;;;41.97;29.83;;;;;;;-144.47;100.00;61586.06;4971789;28;20039;-83
2022/10/22 10:25:31;;;;;;;42.28;29.48;;;;;;;-144.47;100.00;61586.06;4969707;28;20337;-83
2022/10/22 10:28:13;;;;;;;42.28;30.42;;;;;;;-144.47;100.00;61586.06;4970460;28;20030;-84
2022/10/22 10:31:05;;;;;;;42.75;30.55;;;;;;;-144.47;100.00;61586.06;4973577;28;20043;-85
2022/10/22 10:33:52;;;;;;;43.17;29.55;;;;;;;-144.47;100.00;61586.06;4970948;28;20432;-83
2022/10/22 10:36:28;;;;;;;41.50;29.83;;;;;;;-144.47;100.00;61586.06;4973002;28;20434;-83
2022/10/22 10:39:54;;;;;;;49.10;31.83;;;;;;;-144.47;100.00;61586.06;4960860;28;20391;-85
2022/10/22 10:42:35;;;;;;;44.15;29.77;;;;;;;-144.47;100.00;61586.06;4971591;28;20050;-85
2022/10/22 10:45:12;;;;;;;41.08;28.50;;;;;;;-144.47;100.00;61586.06;4958916;28;20037;-84
2022/10/22 10:48:08;;;;;;;40.85;28.55;;;;;;;-144.47;100.00;61586.06;4963430;28;20035;-85
2022/10/22 10:50:40;;;;;;;40.83;29.00;;;;;;;-144.47;100.00;61586.06;4970679;28;20054;-85
2022/10/22 10:53:26;;;;;;;36.05;27.88;;;;;;;-144.47;100.00;61586.06;4972257;28;20031;-84
2022/10/22 10:56:37;;;;;;;40.10;28.55;;;;;;;-144.47;100.00;61586.06;4969195;28;20034;-85
2022/10/22 10:59:28;;;;;;;39.33;27.23;;;;;;;-144.47;100.00;61586.06;4880821;28;20510;-86
2022/10/22 11:02:03;;;;;;;48.25;28.67;;;;;;;-144.47;100.00;61586.06;4973053;28;20372;-85
2022/10/22 11:04:47;;;;;;;44.38;28.63;;;;;;;-144.47;100.00;61586.06;4972841;28;20147;-87
2022/10/22 11:07:18;;;;;;;41.17;27.23;;;;;;;-144.47;100.00;61586.06;4972704;28;20039;-86